Terminal Aerodrome Forecast
Issued by NWS

Home | Current Version | Previous Version | Text Only | Print | Product List | Glossary On
Versions: 1 2 3 4 5 6 7 8 9 10 11 12 13 14 15 16 17 18 19
000
FTUS46 KPDT 010500
TAFPSC
TAF
KPSC 010521Z 0106/0206 VRB04KT P6SM OVC020
     FM011100 VRB03KT 5SM BR OVC015
     FM012100 VRB06KT P6SM VCSH OVC025=

USA.gov is the U.S. government's official web portal to all federal, state and local government web resources and services.